createdAt,value
2019-03-29T00:01:07.643Z,57.16
2019-03-29T00:03:37.886Z,59.04
2019-03-29T00:06:08.060Z,59.04
2019-03-29T00:08:38.464Z,59.71
2019-03-29T00:11:08.974Z,59.76
2019-03-29T00:13:38.999Z,58.77
2019-03-29T00:16:09.729Z,58.83
2019-03-29T00:18:39.902Z,59.89
2019-03-29T00:21:10.039Z,59.49
2019-03-29T00:23:40.571Z,59.96
2019-03-29T00:26:11.081Z,60.93
2019-03-29T00:28:41.603Z,62.93
2019-03-29T00:31:11.828Z,61.59
2019-03-29T00:33:41.912Z,61.59
2019-03-29T00:36:11.973Z,61.54
2019-03-29T00:38:42.705Z,61.81
2019-03-29T00:41:11.971Z,62.77
2019-03-29T00:43:42.449Z,63.36
2019-03-29T00:46:12.917Z,62.05
2019-03-29T00:48:43.306Z,62.19
2019-03-29T00:51:13.956Z,61.18
2019-03-29T00:53:44.583Z,61.73
2019-03-29T00:56:14.990Z,60.45
2019-03-29T00:58:45.569Z,60.45
2019-03-29T01:01:15.956Z,60.63
2019-03-29T01:03:46.386Z,59.00
2019-03-29T01:06:17.037Z,58.61
2019-03-29T01:08:47.298Z,57.87
2019-03-29T01:11:18.236Z,57.48
2019-03-29T01:13:48.870Z,57.96
2019-03-29T01:16:19.566Z,58.21
2019-03-29T01:18:49.931Z,58.50
2019-03-29T01:21:19.971Z,58.50
2019-03-29T01:23:50.822Z,58.32
2019-03-29T01:26:21.327Z,58.95
2019-03-29T01:28:51.993Z,58.81
2019-03-29T01:31:22.110Z,60.26
2019-03-29T01:33:52.714Z,59.28
2019-03-29T01:36:22.011Z,59.62
2019-03-29T01:38:52.552Z,59.56
2019-03-29T01:41:23.030Z,61.00
2019-03-29T01:43:53.312Z,61.00
2019-03-29T01:46:23.726Z,61.47
2019-03-29T01:48:52.851Z,61.65
2019-03-29T01:51:23.081Z,60.13
2019-03-29T01:53:53.639Z,60.37
2019-03-29T01:56:23.840Z,60.34
2019-03-29T01:58:53.975Z,60.34
2019-03-29T02:01:24.566Z,60.13
2019-03-29T02:03:54.887Z,59.07
2019-03-29T02:06:25.628Z,59.07
2019-03-29T02:08:55.880Z,59.63
2019-03-29T02:11:26.114Z,59.63
2019-03-29T02:13:56.578Z,59.74
2019-03-29T02:16:26.889Z,60.71
2019-03-29T02:18:57.013Z,60.71
2019-03-29T02:21:28.780Z,60.94
2019-03-29T02:23:57.984Z,60.22
2019-03-29T02:26:28.519Z,60.36
2019-03-29T02:28:58.991Z,61.08
2019-03-29T02:31:29.290Z,61.08
2019-03-29T02:33:59.777Z,61.06
2019-03-29T02:36:31.012Z,61.65
2019-03-29T02:39:02.866Z,61.65
2019-03-29T02:41:34.078Z,62.57
2019-03-29T02:44:04.653Z,62.68
2019-03-29T02:46:34.990Z,63.33
2019-03-29T02:49:06.085Z,63.33
2019-03-29T02:51:36.585Z,63.97
2019-03-29T02:54:07.201Z,63.61
2019-03-29T02:56:37.416Z,63.61
2019-03-29T02:59:07.939Z,62.84
2019-03-29T03:01:38.309Z,64.82
2019-03-29T03:04:09.113Z,65.33
2019-03-29T03:06:39.694Z,65.37
2019-03-29T03:09:13.616Z,65.53
2019-03-29T03:11:43.375Z,65.15
2019-03-29T03:14:13.869Z,64.23
2019-03-29T03:16:44.100Z,64.28
2019-03-29T03:19:14.512Z,64.76
2019-03-29T03:21:44.820Z,64.97
2019-03-29T03:24:14.906Z,65.38
2019-03-29T03:26:46.103Z,66.22
2019-03-29T03:29:16.920Z,66.63
2019-03-29T03:31:47.082Z,66.63
2019-03-29T03:34:17.718Z,66.87
2019-03-29T03:36:46.899Z,65.76
2019-03-29T03:39:30.550Z,64.79
2019-03-29T03:41:49.742Z,65.36
2019-03-29T03:44:19.049Z,65.29
2019-03-29T03:46:49.883Z,67.20
2019-03-29T03:49:20.039Z,67.78
2019-03-29T03:51:50.874Z,68.76
2019-03-29T03:54:22.032Z,68.44
2019-03-29T03:56:53.929Z,69.00
2019-03-29T03:59:26.206Z,69.04
2019-03-29T04:01:56.577Z,67.50
2019-03-29T04:04:26.945Z,67.63
2019-03-29T04:06:57.017Z,67.63
2019-03-29T04:09:27.305Z,67.18
2019-03-29T04:11:57.572Z,66.91
2019-03-29T04:14:27.967Z,65.69
2019-03-29T04:16:58.108Z,66.18
2019-03-29T04:19:28.819Z,67.81
2019-03-29T04:21:58.919Z,67.54
2019-03-29T04:24:29.075Z,68.46
2019-03-29T04:26:59.515Z,69.36
2019-03-29T04:29:29.979Z,69.18
2019-03-29T04:32:00.088Z,68.24
2019-03-29T04:34:30.534Z,68.04
2019-03-29T04:37:00.941Z,68.77
2019-03-29T04:39:32.116Z,69.23
2019-03-29T04:42:02.916Z,70.22
2019-03-29T04:44:32.979Z,70.98
2019-03-29T04:47:03.112Z,71.36
2019-03-29T04:49:33.891Z,71.65
2019-03-29T04:52:04.386Z,72.19
2019-03-29T04:54:34.865Z,72.64
2019-03-29T04:57:05.636Z,71.93
2019-03-29T04:59:35.027Z,71.14
2019-03-29T05:02:05.603Z,70.54
2019-03-29T05:04:35.999Z,70.23
2019-03-29T05:07:06.716Z,70.23
2019-03-29T05:09:37.030Z,71.42
2019-03-29T05:12:07.795Z,71.71
2019-03-29T05:14:37.918Z,70.59
2019-03-29T05:17:08.441Z,70.62
2019-03-29T05:19:38.869Z,68.90
2019-03-29T05:22:09.545Z,69.64
2019-03-29T05:24:40.040Z,69.81
2019-03-29T05:27:10.573Z,69.81
2019-03-29T05:29:43.488Z,70.41
2019-03-29T05:32:13.999Z,68.70
2019-03-29T05:34:44.516Z,68.70
2019-03-29T05:37:14.953Z,68.88
2019-03-29T05:39:44.992Z,69.85
2019-03-29T05:42:15.461Z,68.14
2019-03-29T05:44:50.951Z,68.30
2019-03-29T05:47:21.160Z,66.80
2019-03-29T05:49:51.697Z,64.96
2019-03-29T05:52:22.055Z,60.56
2019-03-29T05:54:52.911Z,58.48
2019-03-29T05:57:23.478Z,54.47
2019-03-29T06:00:00.705Z,51.50
2019-03-29T06:02:29.790Z,47.15
2019-03-29T06:05:00.502Z,45.09
2019-03-29T06:07:30.976Z,40.67
2019-03-29T06:10:01.577Z,40.67
2019-03-29T06:12:39.683Z,37.65
2019-03-29T06:15:08.919Z,37.51
2019-03-29T06:17:48.406Z,37.51
2019-03-29T06:20:12.130Z,38.49
2019-03-29T06:22:58.933Z,35.87
2019-03-29T06:25:34.600Z,33.39
2019-03-29T06:28:05.046Z,34.43
2019-03-29T06:30:35.973Z,34.43
2019-03-29T06:33:06.065Z,34.70
2019-03-29T06:35:41.212Z,36.73
2019-03-29T06:38:12.596Z,33.64
2019-03-29T06:40:43.474Z,31.02
2019-03-29T06:43:15.051Z,33.97
2019-03-29T06:45:48.048Z,33.97
2019-03-29T06:48:19.007Z,31.12
2019-03-29T06:50:50.214Z,35.03
2019-03-29T06:53:24.307Z,35.07
2019-03-29T06:55:59.367Z,32.47
2019-03-29T06:58:31.051Z,28.62
2019-03-29T07:01:01.907Z,29.65
2019-03-29T07:03:32.944Z,31.48
2019-03-29T07:06:04.305Z,30.98
2019-03-29T07:08:35.790Z,31.32
2019-03-29T07:11:16.646Z,30.19
2019-03-29T07:13:38.709Z,31.15
2019-03-29T07:16:09.254Z,31.91
2019-03-29T07:18:39.902Z,31.86
2019-03-29T07:21:20.839Z,29.39
2019-03-29T07:23:41.778Z,31.09
2019-03-29T07:26:12.297Z,31.09
2019-03-29T07:28:42.701Z,30.29
2019-03-29T07:31:12.082Z,27.62
2019-03-29T07:33:43.009Z,26.33
2019-03-29T07:36:13.793Z,30.34
2019-03-29T07:38:44.293Z,30.21
2019-03-29T07:41:14.939Z,30.83
2019-03-29T07:43:45.710Z,30.68
2019-03-29T07:46:16.156Z,30.00
2019-03-29T07:48:46.558Z,28.35
2019-03-29T07:51:16.917Z,24.79
2019-03-29T07:53:47.104Z,22.74
2019-03-29T07:56:17.835Z,23.85
2019-03-29T07:58:47.987Z,24.30
2019-03-29T08:01:18.528Z,24.84
2019-03-29T08:03:51.346Z,26.65
2019-03-29T08:06:21.815Z,25.47
2019-03-29T08:08:52.101Z,21.47
2019-03-29T08:11:26.305Z,19.74
2019-03-29T08:13:56.757Z,18.58
2019-03-29T08:16:26.897Z,20.20
2019-03-29T08:18:57.838Z,20.74
2019-03-29T08:21:27.961Z,23.53
2019-03-29T08:23:59.307Z,23.34
2019-03-29T08:26:29.998Z,20.88
2019-03-29T08:29:01.126Z,22.69
2019-03-29T08:31:31.729Z,20.80
2019-03-29T08:34:03.677Z,19.00
2019-03-29T08:36:33.584Z,18.19
2019-03-29T08:39:04.384Z,17.65
2019-03-29T08:41:35.584Z,19.12
2019-03-29T08:44:06.625Z,19.50
2019-03-29T08:46:37.058Z,19.50
2019-03-29T08:49:07.832Z,17.63
2019-03-29T08:51:41.226Z,17.11
2019-03-29T08:54:10.049Z,16.68
2019-03-29T08:56:40.705Z,18.15
2019-03-29T08:59:09.898Z,18.69
2019-03-29T09:01:40.449Z,17.64
2019-03-29T09:04:11.286Z,16.41
2019-03-29T09:06:52.482Z,16.36
2019-03-29T09:09:14.768Z,15.64
2019-03-29T09:11:45.333Z,15.19
2019-03-29T09:14:15.956Z,14.58
2019-03-29T09:16:47.210Z,14.18
2019-03-29T09:19:20.727Z,16.45
2019-03-29T09:21:51.049Z,16.50
2019-03-29T09:24:22.605Z,15.32
2019-03-29T09:26:53.065Z,13.95
2019-03-29T09:29:23.660Z,13.24
2019-03-29T09:31:52.911Z,12.63
2019-03-29T09:34:23.125Z,12.63
2019-03-29T09:36:53.988Z,15.80
2019-03-29T09:39:24.777Z,15.35
2019-03-29T09:41:55.575Z,13.62
2019-03-29T09:44:27.047Z,11.86
2019-03-29T09:46:57.882Z,14.24
2019-03-29T09:49:29.699Z,14.76
2019-03-29T09:51:58.861Z,14.25
2019-03-29T09:54:29.389Z,14.25
2019-03-29T09:56:59.751Z,12.80
2019-03-29T09:59:28.847Z,12.50
2019-03-29T10:01:59.066Z,14.08
2019-03-29T10:04:31.546Z,14.30
2019-03-29T10:07:01.890Z,15.35
2019-03-29T10:09:32.728Z,16.43
2019-03-29T10:12:03.640Z,17.31
2019-03-29T10:14:34.318Z,16.41
2019-03-29T10:17:05.598Z,15.96
2019-03-29T10:19:37.027Z,19.02
2019-03-29T10:22:08.731Z,19.02
2019-03-29T10:24:39.766Z,19.00
2019-03-29T10:27:10.603Z,17.44
2019-03-29T10:29:41.080Z,14.94
2019-03-29T10:32:11.879Z,14.94
2019-03-29T10:34:42.315Z,16.59
2019-03-29T10:37:13.485Z,15.11
2019-03-29T10:39:44.003Z,15.48
2019-03-29T10:42:14.613Z,15.48
2019-03-29T10:44:53.606Z,16.99
2019-03-29T10:47:42.539Z,17.81
2019-03-29T10:50:00.863Z,17.81
2019-03-29T10:52:30.949Z,15.83
2019-03-29T10:55:02.071Z,15.79
2019-03-29T10:57:33.294Z,15.49
2019-03-29T11:00:06.059Z,16.09
2019-03-29T11:02:38.314Z,16.18
2019-03-29T11:05:09.861Z,16.59
2019-03-29T11:07:41.100Z,16.64
2019-03-29T11:10:29.647Z,16.09
2019-03-29T11:13:12.453Z,17.65
2019-03-29T11:15:38.245Z,19.59
2019-03-29T11:18:09.129Z,17.29
2019-03-29T11:20:40.296Z,16.94
2019-03-29T11:23:12.926Z,19.26
2019-03-29T11:25:43.292Z,20.33
2019-03-29T11:28:14.071Z,19.60
2019-03-29T11:30:44.984Z,18.04
2019-03-29T11:33:15.155Z,17.96
2019-03-29T11:35:45.540Z,19.27
2019-03-29T11:38:15.919Z,18.70
2019-03-29T11:40:45.998Z,18.70
2019-03-29T11:43:26.528Z,17.79
2019-03-29T11:45:49.753Z,17.89
2019-03-29T11:48:20.295Z,18.31
2019-03-29T11:50:51.057Z,19.06
2019-03-29T11:53:23.431Z,18.10
2019-03-29T11:55:54.295Z,16.13
2019-03-29T11:58:25.587Z,14.43
2019-03-29T12:00:56.510Z,16.01
2019-03-29T12:03:27.292Z,16.01
2019-03-29T12:05:58.048Z,17.36
2019-03-29T12:08:28.750Z,17.49
2019-03-29T12:10:58.905Z,19.80
2019-03-29T12:13:40.353Z,19.80
2019-03-29T12:16:02.773Z,18.19
2019-03-29T12:18:34.467Z,15.71
2019-03-29T12:21:04.995Z,17.20
2019-03-29T12:23:36.003Z,14.95
2019-03-29T12:26:07.013Z,13.89
2019-03-29T12:28:37.793Z,17.21
2019-03-29T12:31:07.771Z,17.91
2019-03-29T12:33:38.173Z,18.94
2019-03-29T12:36:08.609Z,18.42
2019-03-29T12:38:39.007Z,15.98
2019-03-29T12:41:09.579Z,15.98
2019-03-29T12:43:39.961Z,17.03
2019-03-29T12:46:11.105Z,17.03
2019-03-29T12:48:42.136Z,15.43
2019-03-29T12:51:13.077Z,19.60
2019-03-29T12:53:44.101Z,20.35
2019-03-29T12:56:14.754Z,17.70
2019-03-29T12:58:43.872Z,16.07
2019-03-29T13:01:14.945Z,13.75
2019-03-29T13:03:46.563Z,15.86
2019-03-29T13:06:16.975Z,18.00
2019-03-29T13:08:47.072Z,16.99
2019-03-29T13:11:17.566Z,15.67
2019-03-29T13:13:48.448Z,16.42
2019-03-29T13:16:18.747Z,17.47
2019-03-29T13:18:47.987Z,17.62
2019-03-29T13:21:18.110Z,18.58
2019-03-29T13:23:48.612Z,18.23
2019-03-29T13:26:18.383Z,20.39
2019-03-29T13:28:48.883Z,21.05
2019-03-29T13:31:20.076Z,21.46
2019-03-29T13:33:50.918Z,22.31
2019-03-29T13:36:21.753Z,22.54
2019-03-29T13:38:51.944Z,22.94
2019-03-29T13:41:23.148Z,22.27
2019-03-29T13:43:53.762Z,22.69
2019-03-29T13:46:23.975Z,22.54
2019-03-29T13:48:54.328Z,21.59
2019-03-29T13:51:25.325Z,22.05
2019-03-29T13:53:56.124Z,22.04
2019-03-29T13:56:26.854Z,21.43
2019-03-29T13:58:57.858Z,20.41
2019-03-29T14:01:28.294Z,19.83
2019-03-29T14:04:02.806Z,20.16
2019-03-29T14:06:33.615Z,20.42
2019-03-29T14:09:04.403Z,21.36
2019-03-29T14:11:34.886Z,22.25
2019-03-29T14:14:05.280Z,22.40
2019-03-29T14:16:35.839Z,22.18
2019-03-29T14:19:06.198Z,22.67
2019-03-29T14:21:37.719Z,24.36
2019-03-29T14:24:06.829Z,25.49
2019-03-29T14:26:37.487Z,25.07
2019-03-29T14:29:07.918Z,25.26
2019-03-29T14:31:38.165Z,25.94
2019-03-29T14:34:08.626Z,27.56
2019-03-29T14:36:39.221Z,26.26
2019-03-29T14:39:09.958Z,26.26
2019-03-29T14:41:40.488Z,25.72
2019-03-29T14:44:11.003Z,26.36
2019-03-29T14:46:41.791Z,26.37
2019-03-29T14:49:12.322Z,26.81
2019-03-29T14:51:42.967Z,28.17
2019-03-29T14:54:13.830Z,27.69
2019-03-29T14:56:44.160Z,26.84
2019-03-29T14:59:15.725Z,26.08
2019-03-29T15:01:45.053Z,26.30
2019-03-29T15:04:15.580Z,25.81
2019-03-29T15:06:46.507Z,25.94
2019-03-29T15:09:17.299Z,25.94
2019-03-29T15:11:48.306Z,26.57
2019-03-29T15:14:19.424Z,26.23
2019-03-29T15:16:49.980Z,26.57
2019-03-29T15:19:20.618Z,27.27
2019-03-29T15:21:50.941Z,27.57
2019-03-29T15:24:22.482Z,27.57
2019-03-29T15:26:52.920Z,26.69
2019-03-29T15:29:22.985Z,26.57
2019-03-29T15:31:53.390Z,26.96
2019-03-29T15:34:23.728Z,26.38
2019-03-29T15:36:52.951Z,26.75
2019-03-29T15:39:23.293Z,26.94
2019-03-29T15:41:53.782Z,27.68
2019-03-29T15:44:22.931Z,27.63
2019-03-29T15:46:54.579Z,27.78
2019-03-29T15:49:24.966Z,28.52
2019-03-29T15:51:55.149Z,28.52
2019-03-29T15:54:25.588Z,28.33
2019-03-29T15:56:55.901Z,29.34
2019-03-29T15:59:26.289Z,29.34
2019-03-29T16:01:56.726Z,28.96
2019-03-29T16:04:25.944Z,28.47
2019-03-29T16:06:57.130Z,28.27
2019-03-29T16:09:27.636Z,28.57
2019-03-29T16:11:57.934Z,28.74
2019-03-29T16:14:28.140Z,28.74
2019-03-29T16:16:58.893Z,28.55
2019-03-29T16:19:30.561Z,27.98
2019-03-29T16:22:01.175Z,28.34
2019-03-29T16:24:31.603Z,28.34
2019-03-29T16:27:01.878Z,28.10
2019-03-29T16:29:32.062Z,28.10
2019-03-29T16:32:02.592Z,28.62
2019-03-29T16:34:32.920Z,27.96
2019-03-29T16:37:03.114Z,27.96
2019-03-29T16:39:33.722Z,28.48
2019-03-29T16:42:03.934Z,29.05
2019-03-29T16:44:34.421Z,29.92
2019-03-29T16:47:04.863Z,29.20
2019-03-29T16:49:35.024Z,29.49
2019-03-29T16:52:05.540Z,29.48
2019-03-29T16:54:35.876Z,29.67
2019-03-29T16:57:06.074Z,29.76
2019-03-29T16:59:36.921Z,29.59
2019-03-29T17:02:07.430Z,29.65
2019-03-29T17:04:38.015Z,29.74
2019-03-29T17:07:08.599Z,29.55
2019-03-29T17:09:37.845Z,29.49
2019-03-29T17:12:08.309Z,29.49
2019-03-29T17:14:38.835Z,29.87
2019-03-29T17:17:08.988Z,30.30
2019-03-29T17:19:39.135Z,30.87
2019-03-29T17:22:09.666Z,30.68
2019-03-29T17:24:40.328Z,30.87
2019-03-29T17:27:10.008Z,31.34
2019-03-29T17:29:40.618Z,31.22
2019-03-29T17:32:11.008Z,31.56
2019-03-29T17:34:41.645Z,31.56
2019-03-29T17:37:10.893Z,31.29
2019-03-29T17:39:41.299Z,31.80
2019-03-29T17:42:11.736Z,32.16
2019-03-29T17:44:42.071Z,32.49
2019-03-29T17:47:12.618Z,32.88
2019-03-29T17:49:42.921Z,33.24
2019-03-29T17:52:12.981Z,33.24
2019-03-29T17:54:43.291Z,33.92
2019-03-29T17:57:13.980Z,33.98
2019-03-29T17:59:44.913Z,34.14
2019-03-29T18:02:15.038Z,33.70
2019-03-29T18:04:45.611Z,34.44
2019-03-29T18:07:15.015Z,34.28
2019-03-29T18:09:45.950Z,34.51
2019-03-29T18:12:16.650Z,34.96
2019-03-29T18:14:45.973Z,35.47
2019-03-29T18:17:16.427Z,35.20
2019-03-29T18:19:46.955Z,35.31
2019-03-29T18:22:17.107Z,35.70
2019-03-29T18:24:47.813Z,35.61
2019-03-29T18:27:34.677Z,35.81
2019-03-29T18:30:28.872Z,35.80
2019-03-29T18:33:22.679Z,36.30
2019-03-29T18:35:57.288Z,36.15
2019-03-29T18:38:28.892Z,36.45
2019-03-29T18:40:58.825Z,37.01
2019-03-29T18:43:29.042Z,37.10
2019-03-29T18:45:59.699Z,37.12
2019-03-29T18:48:28.866Z,38.19
2019-03-29T18:50:58.983Z,38.19
2019-03-29T18:53:29.769Z,38.43
2019-03-29T18:55:58.940Z,39.39
2019-03-29T18:58:29.579Z,39.21
2019-03-29T19:00:59.951Z,39.42
2019-03-29T19:03:30.630Z,39.42
2019-03-29T19:06:00.936Z,40.36
2019-03-29T19:08:31.132Z,40.36
2019-03-29T19:11:02.070Z,41.46
2019-03-29T19:13:32.797Z,41.80
2019-03-29T19:16:03.035Z,42.90
2019-03-29T19:18:33.827Z,43.38
2019-03-29T19:21:04.289Z,44.22
2019-03-29T19:23:35.001Z,42.36
2019-03-29T19:26:05.575Z,43.94
2019-03-29T19:28:35.970Z,46.13
2019-03-29T19:31:06.242Z,46.13
2019-03-29T19:33:37.784Z,46.41
2019-03-29T19:36:08.113Z,47.74
2019-03-29T19:38:38.816Z,47.28
2019-03-29T19:41:09.128Z,47.28
2019-03-29T19:43:40.311Z,47.39
2019-03-29T19:46:11.183Z,47.21
2019-03-29T19:48:41.985Z,47.59
2019-03-29T19:51:12.765Z,48.17
2019-03-29T19:53:41.963Z,48.21
2019-03-29T19:56:12.446Z,48.21
2019-03-29T19:58:43.043Z,48.94
2019-03-29T20:01:14.009Z,49.52
2019-03-29T20:03:44.849Z,49.54
2019-03-29T20:06:15.122Z,49.56
2019-03-29T20:08:53.537Z,50.14
2019-03-29T20:11:24.307Z,50.53
2019-03-29T20:13:54.926Z,50.53
2019-03-29T20:16:25.459Z,51.06
2019-03-29T20:18:56.166Z,51.25
2019-03-29T20:21:27.035Z,51.28
2019-03-29T20:24:00.191Z,51.69
2019-03-29T20:26:29.929Z,52.23
2019-03-29T20:29:00.785Z,52.32
2019-03-29T20:31:31.087Z,52.62
2019-03-29T20:34:02.156Z,53.25
2019-03-29T20:36:35.327Z,53.43
2019-03-29T20:39:09.328Z,53.74
2019-03-29T20:41:47.947Z,53.87
2019-03-29T20:44:18.159Z,53.33
2019-03-29T20:46:48.563Z,52.41
2019-03-29T20:49:19.000Z,53.45
2019-03-29T20:51:49.735Z,53.66
2019-03-29T20:54:19.417Z,54.77
2019-03-29T20:56:49.959Z,55.23
2019-03-29T20:59:20.714Z,55.51
2019-03-29T21:01:52.894Z,55.63
2019-03-29T21:04:23.606Z,54.98
2019-03-29T21:06:53.050Z,55.12
2019-03-29T21:09:23.572Z,55.84
2019-03-29T21:11:54.071Z,55.24
2019-03-29T21:14:24.762Z,55.87
2019-03-29T21:16:54.041Z,56.31
2019-03-29T21:19:25.032Z,56.30
2019-03-29T21:21:55.612Z,56.75
2019-03-29T21:24:24.993Z,56.69
2019-03-29T21:26:55.717Z,56.60
2019-03-29T21:29:26.333Z,56.17
2019-03-29T21:31:56.879Z,56.19
2019-03-29T21:34:27.612Z,56.47
2019-03-29T21:36:56.896Z,57.06
2019-03-29T21:39:27.302Z,56.90
2019-03-29T21:41:57.716Z,56.63
2019-03-29T21:44:27.920Z,57.30
2019-03-29T21:46:58.474Z,56.81
2019-03-29T21:49:28.976Z,56.74
2019-03-29T21:51:59.237Z,56.52
2019-03-29T21:54:29.965Z,56.69
2019-03-29T21:57:00.938Z,57.13
2019-03-29T21:59:31.118Z,56.60
2019-03-29T22:02:01.612Z,57.16
2019-03-29T22:04:30.921Z,56.65
2019-03-29T22:07:02.010Z,57.75
2019-03-29T22:09:37.075Z,58.63
2019-03-29T22:12:04.835Z,59.81
2019-03-29T22:14:36.323Z,60.23
2019-03-29T22:17:06.988Z,61.09
2019-03-29T22:19:37.049Z,60.37
2019-03-29T22:22:07.580Z,59.85
2019-03-29T22:24:38.175Z,59.81
2019-03-29T22:27:08.619Z,59.81
2019-03-29T22:29:39.040Z,59.49
2019-03-29T22:32:09.563Z,59.49
2019-03-29T22:34:38.848Z,59.88
2019-03-29T22:37:09.065Z,59.88
2019-03-29T22:39:39.524Z,58.97
2019-03-29T22:42:09.291Z,59.65
2019-03-29T22:44:39.558Z,59.65
2019-03-29T22:47:09.959Z,59.70
2019-03-29T22:49:40.588Z,60.26
2019-03-29T22:52:10.993Z,60.57
2019-03-29T22:54:42.059Z,61.04
2019-03-29T22:57:12.631Z,60.87
2019-03-29T23:00:39.688Z,61.57
2019-03-29T23:03:12.157Z,61.98
2019-03-29T23:05:42.793Z,61.96
2019-03-29T23:08:11.969Z,62.03
2019-03-29T23:10:42.116Z,61.78
2019-03-29T23:13:12.675Z,62.09
2019-03-29T23:15:42.928Z,61.97
2019-03-29T23:18:14.042Z,61.97
2019-03-29T23:20:44.314Z,61.68
2019-03-29T23:23:15.006Z,61.77
2019-03-29T23:25:47.170Z,61.80
2019-03-29T23:28:17.854Z,62.09
2019-03-29T23:30:48.642Z,62.30
2019-03-29T23:33:18.951Z,62.67
2019-03-29T23:35:49.888Z,62.67
2019-03-29T23:38:20.623Z,61.99
2019-03-29T23:40:52.700Z,61.35
2019-03-29T23:43:22.632Z,62.44
2019-03-29T23:45:52.872Z,63.49
2019-03-29T23:48:23.574Z,64.10
2019-03-29T23:50:54.391Z,64.42
2019-03-29T23:53:25.290Z,66.01
2019-03-29T23:55:56.625Z,66.01
2019-03-29T23:58:26.275Z,64.43
